Time;durP1;ratioP1;P1;durP2;ratioP2;P2;SDS_P1;SDS_P2;PMS_P1;PMS_P2;Temp;Humidity;BMP_temperature;BMP_pressure;BME280_temperature;BME280_humidity;BME280_pressure;Samples;Min_cycle;Max_cycle;Signal;HPM_P1;HPM_P2
2020/12/31 00:00:06;;;;;;;7.05;5.20;;;6.40;99.90;;;;;;5137478;27;20212;-76
2020/12/31 00:02:32;;;;;;;6.50;4.57;;;6.30;99.90;;;;;;5131423;27;20574;-78
2020/12/31 00:04:58;;;;;;;5.65;4.80;;;6.40;99.90;;;;;;5131762;27;20555;-78
2020/12/31 00:07:25;;;;;;;9.10;4.68;;;6.40;99.90;;;;;;5135963;27;20197;-82
2020/12/31 00:09:51;;;;;;;7.03;5.28;;;6.40;99.90;;;;;;5131863;27;20196;-79
2020/12/31 00:12:18;;;;;;;6.15;5.43;;;6.40;99.90;;;;;;5137819;27;20244;-78
2020/12/31 00:14:45;;;;;;;6.32;3.83;;;6.40;99.90;;;;;;5141230;27;20593;-78
2020/12/31 00:17:11;;;;;;;5.20;4.57;;;6.30;99.90;;;;;;5145583;27;20196;-78
2020/12/31 00:19:37;;;;;;;5.38;4.88;;;6.30;99.90;;;;;;5135705;27;20196;-78
2020/12/31 00:22:04;;;;;;;6.13;5.57;;;6.30;99.90;;;;;;5140195;27;20207;-78
2020/12/31 00:24:30;;;;;;;5.15;4.50;;;6.30;99.90;;;;;;5146470;27;20210;-77
2020/12/31 00:26:56;;;;;;;7.05;5.22;;;6.40;99.90;;;;;;5154337;27;20196;-77
2020/12/31 00:29:22;;;;;;;6.28;4.78;;;6.30;99.90;;;;;;5141498;27;20195;-77
2020/12/31 00:31:49;;;;;;;5.85;4.85;;;6.40;99.90;;;;;;5134773;27;20208;-76
2020/12/31 00:34:16;;;;;;;4.43;3.85;;;6.30;99.90;;;;;;5135606;27;20257;-76
2020/12/31 00:36:42;;;;;;;5.95;4.78;;;6.40;99.90;;;;;;5134655;27;20200;-77
2020/12/31 00:39:08;;;;;;;6.53;4.80;;;6.40;99.90;;;;;;5135512;27;20203;-77
2020/12/31 00:41:35;;;;;;;5.05;4.18;;;6.30;99.90;;;;;;5134803;27;20196;-76
2020/12/31 00:44:01;;;;;;;4.97;4.47;;;6.30;99.90;;;;;;5134300;27;20585;-77
2020/12/31 00:46:27;;;;;;;5.65;4.50;;;6.30;99.90;;;;;;5143773;27;20558;-77
2020/12/31 00:48:54;;;;;;;4.25;3.65;;;6.30;99.90;;;;;;5154251;27;20192;-79
2020/12/31 00:51:20;;;;;;;4.95;4.30;;;6.30;99.90;;;;;;5142979;27;20192;-78
2020/12/31 00:53:46;;;;;;;5.82;4.07;;;6.30;99.90;;;;;;5145380;27;20196;-78
2020/12/31 00:56:13;;;;;;;4.45;3.63;;;6.30;99.90;;;;;;5134207;27;20208;-78
2020/12/31 00:58:39;;;;;;;5.22;4.03;;;6.30;99.90;;;;;;5134532;27;20200;-77
2020/12/31 01:01:05;;;;;;;4.35;3.83;;;6.30;99.90;;;;;;5134141;27;20535;-77
2020/12/31 01:03:32;;;;;;;5.57;3.92;;;6.30;99.90;;;;;;5134129;27;20216;-77
2020/12/31 01:05:59;;;;;;;4.82;4.40;;;6.30;99.90;;;;;;5135190;27;20196;-77
2020/12/31 01:08:26;;;;;;;5.50;4.35;;;6.30;99.90;;;;;;5135029;27;20200;-77
2020/12/31 01:10:52;;;;;;;4.03;3.30;;;6.30;99.90;;;;;;5134641;27;20208;-77
2020/12/31 01:13:18;;;;;;;4.72;3.75;;;6.30;99.90;;;;;;5134654;27;20185;-77
2020/12/31 01:15:45;;;;;;;5.57;4.22;;;6.30;99.90;;;;;;5139041;27;20192;-77
2020/12/31 01:18:11;;;;;;;7.28;4.50;;;6.30;99.90;;;;;;5148936;27;20203;-78
2020/12/31 01:20:39;;;;;;;3.80;3.20;;;6.30;99.90;;;;;;5141194;27;20192;-78
2020/12/31 01:23:06;;;;;;;6.10;3.60;;;6.30;99.90;;;;;;5147292;27;20206;-77
2020/12/31 01:25:33;;;;;;;5.50;4.10;;;6.30;99.90;;;;;;5149558;27;20192;-77
2020/12/31 01:27:59;;;;;;;4.20;3.72;;;6.30;99.90;;;;;;5139356;27;20200;-77
2020/12/31 01:30:25;;;;;;;4.10;3.70;;;6.20;99.90;;;;;;5142888;27;20215;-77
2020/12/31 01:32:52;;;;;;;3.97;3.35;;;6.20;99.90;;;;;;5134158;27;20683;-77
2020/12/31 01:35:18;;;;;;;4.65;4.10;;;6.30;99.90;;;;;;5139980;27;20188;-76
2020/12/31 01:37:44;;;;;;;3.70;2.72;;;6.30;99.90;;;;;;5134265;27;20246;-77
2020/12/31 01:40:12;;;;;;;6.03;3.53;;;6.20;99.90;;;;;;5139038;27;20226;-77
2020/12/31 01:42:39;;;;;;;3.22;2.70;;;6.20;99.90;;;;;;5136116;27;20196;-77
2020/12/31 01:45:05;;;;;;;4.30;3.78;;;6.30;99.90;;;;;;5149371;27;20710;-77
2020/12/31 01:47:32;;;;;;;4.80;3.20;;;6.30;99.90;;;;;;5145224;27;20200;-77
2020/12/31 01:49:58;;;;;;;3.03;2.72;;;6.30;99.90;;;;;;5134601;27;20200;-76
2020/12/31 01:52:25;;;;;;;3.78;3.47;;;6.30;99.90;;;;;;5134211;27;20200;-76
2020/12/31 01:54:51;;;;;;;3.20;2.90;;;6.30;99.90;;;;;;5134992;27;20204;-77
2020/12/31 01:57:18;;;;;;;3.78;3.33;;;6.30;99.90;;;;;;5142827;27;20195;-77
2020/12/31 01:59:45;;;;;;;4.20;3.60;;;6.30;99.90;;;;;;5139679;27;20196;-76
2020/12/31 02:02:11;;;;;;;3.35;3.05;;;6.20;99.90;;;;;;5137960;27;20204;-78
2020/12/31 02:04:38;;;;;;;3.67;2.97;;;6.20;99.90;;;;;;5133139;27;20212;-77
2020/12/31 02:07:05;;;;;;;4.60;2.95;;;6.20;99.90;;;;;;5139008;27;20203;-77
2020/12/31 02:09:32;;;;;;;3.25;2.83;;;6.20;99.90;;;;;;5147619;27;20226;-77
2020/12/31 02:12:02;;;;;;;5.40;3.42;;;6.20;99.90;;;;;;5144648;27;20200;-78
2020/12/31 02:14:29;;;;;;;7.15;2.85;;;6.30;99.90;;;;;;5145827;27;20195;-78
2020/12/31 02:16:55;;;;;;;4.45;2.58;;;6.20;99.90;;;;;;5140282;27;20196;-78
2020/12/31 02:19:22;;;;;;;4.25;3.25;;;6.20;99.90;;;;;;5142556;27;20528;-78
2020/12/31 02:21:49;;;;;;;4.70;3.20;;;6.30;99.90;;;;;;5139505;27;20195;-78
2020/12/31 02:24:16;;;;;;;3.33;3.03;;;6.20;99.90;;;;;;5133158;27;20212;-80
2020/12/31 02:26:44;;;;;;;4.95;3.47;;;6.20;99.90;;;;;;5132966;27;20624;-80
2020/12/31 02:29:12;;;;;;;2.90;2.70;;;6.30;99.90;;;;;;5133768;27;20505;-80
2020/12/31 02:31:40;;;;;;;3.25;2.95;;;6.30;99.90;;;;;;5137768;27;20195;-80
2020/12/31 02:34:07;;;;;;;5.03;3.33;;;6.30;99.90;;;;;;5138550;27;20189;-79
2020/12/31 02:36:35;;;;;;;3.95;3.60;;;6.30;99.90;;;;;;5135976;27;20218;-79
2020/12/31 02:39:05;;;;;;;5.38;3.22;;;6.20;99.90;;;;;;5153194;27;20187;-79
2020/12/31 02:41:32;;;;;;;3.10;2.30;;;6.20;99.90;;;;;;5143766;27;20210;-81
2020/12/31 02:43:58;;;;;;;2.55;2.35;;;6.20;99.90;;;;;;5152563;27;20279;-80
2020/12/31 02:46:25;;;;;;;4.30;2.80;;;6.20;99.90;;;;;;5143079;27;20195;-79
2020/12/31 02:48:52;;;;;;;3.50;3.20;;;6.30;99.90;;;;;;5138345;27;20199;-79
2020/12/31 02:51:18;;;;;;;3.08;2.78;;;6.30;99.90;;;;;;5143736;27;20259;-79
2020/12/31 02:53:45;;;;;;;3.20;2.80;;;6.30;99.90;;;;;;5149652;27;20191;-79
2020/12/31 02:56:14;;;;;;;2.45;2.20;;;6.20;99.90;;;;;;5143966;27;20203;-78
2020/12/31 02:58:41;;;;;;;3.58;3.10;;;6.20;99.90;;;;;;5134945;27;20257;-79
2020/12/31 03:01:08;;;;;;;3.20;2.58;;;6.20;99.90;;;;;;5142739;27;20196;-79
2020/12/31 03:03:35;;;;;;;2.75;2.55;;;6.20;99.90;;;;;;5141605;27;20273;-80
2020/12/31 03:06:02;;;;;;;5.35;4.85;;;6.30;99.90;;;;;;5143428;27;20195;-80
2020/12/31 03:08:28;;;;;;;4.07;3.63;;;6.20;99.90;;;;;;5136511;27;20192;-80
2020/12/31 03:10:56;;;;;;;4.35;3.17;;;6.30;99.90;;;;;;5145812;27;20195;-81
2020/12/31 03:13:24;;;;;;;2.53;2.33;;;6.30;99.90;;;;;;5142686;27;20938;-80
2020/12/31 03:15:51;;;;;;;3.65;2.78;;;6.30;99.90;;;;;;5144525;27;20192;-80
2020/12/31 03:18:17;;;;;;;3.25;2.78;;;6.20;99.90;;;;;;5141718;27;20233;-80
2020/12/31 03:20:44;;;;;;;3.13;2.50;;;6.30;99.90;;;;;;5149915;27;20211;-80
2020/12/31 03:23:11;;;;;;;2.95;2.40;;;6.20;99.90;;;;;;5134211;27;20193;-80
2020/12/31 03:25:38;;;;;;;4.03;2.97;;;6.30;99.90;;;;;;5145210;27;20268;-80
2020/12/31 03:28:04;;;;;;;2.83;2.55;;;6.30;99.90;;;;;;5133762;27;20200;-79
2020/12/31 03:30:33;;;;;;;3.08;2.80;;;6.30;99.90;;;;;;5142278;27;20192;-78
2020/12/31 03:33:00;;;;;;;3.35;3.05;;;6.30;99.90;;;;;;5139648;27;20198;-78
2020/12/31 03:35:26;;;;;;;2.67;2.28;;;6.20;99.90;;;;;;5141844;27;20250;-79
2020/12/31 03:37:53;;;;;;;3.50;3.03;;;6.20;99.90;;;;;;5141483;27;20282;-79
2020/12/31 03:40:19;;;;;;;2.65;2.45;;;6.20;99.90;;;;;;5144349;27;20199;-78
2020/12/31 03:42:46;;;;;;;2.33;1.90;;;6.20;99.90;;;;;;5140022;27;20256;-79
2020/12/31 03:45:12;;;;;;;3.80;2.97;;;6.20;99.90;;;;;;5139178;27;20211;-80
2020/12/31 03:47:40;;;;;;;5.00;2.80;;;6.20;99.90;;;;;;5139097;27;20204;-79
2020/12/31 03:50:07;;;;;;;3.22;2.90;;;6.20;99.90;;;;;;5138920;27;20193;-79
2020/12/31 03:52:33;;;;;;;3.13;2.83;;;6.20;99.90;;;;;;5146447;27;20196;-78
2020/12/31 03:55:00;;;;;;;3.08;2.72;;;6.20;99.90;;;;;;5146221;27;20188;-80
2020/12/31 03:57:26;;;;;;;2.70;2.50;;;6.20;99.90;;;;;;5141088;27;20203;-80
2020/12/31 03:59:52;;;;;;;2.65;2.45;;;6.30;99.90;;;;;;5148334;27;20196;-81
2020/12/31 04:02:18;;;;;;;3.38;3.00;;;6.30;99.90;;;;;;5155868;27;20586;-77
2020/12/31 04:04:46;;;;;;;4.35;3.15;;;6.30;99.90;;;;;;5150211;27;20203;-80
2020/12/31 04:07:12;;;;;;;4.00;2.72;;;6.20;99.90;;;;;;5144828;27;20199;-81
2020/12/31 04:09:38;;;;;;;2.65;2.28;;;6.20;99.90;;;;;;5143517;27;20345;-81
2020/12/31 04:12:04;;;;;;;3.53;3.10;;;6.30;99.90;;;;;;5149012;27;20203;-82
2020/12/31 04:14:30;;;;;;;3.88;3.05;;;6.30;99.90;;;;;;5152116;27;20192;-80
2020/12/31 04:16:57;;;;;;;3.45;3.15;;;6.30;99.90;;;;;;5146120;27;20199;-80
2020/12/31 04:19:23;;;;;;;3.17;2.78;;;6.30;99.90;;;;;;5135672;27;20196;-80
2020/12/31 04:21:50;;;;;;;3.00;2.78;;;6.30;99.90;;;;;;5134699;27;20196;-80
2020/12/31 04:24:16;;;;;;;3.28;2.97;;;6.30;99.90;;;;;;5141673;27;20237;-81
2020/12/31 04:26:48;;;;;;;3.10;2.80;;;6.30;99.90;;;;;;5148829;27;20256;-78
2020/12/31 04:29:14;;;;;;;3.03;2.75;;;6.20;99.90;;;;;;5139702;27;20221;-78
2020/12/31 04:31:40;;;;;;;3.75;2.85;;;6.20;99.90;;;;;;5148497;27;20211;-78
2020/12/31 04:34:07;;;;;;;2.95;2.53;;;6.20;99.90;;;;;;5144840;27;20187;-80
2020/12/31 04:36:33;;;;;;;3.20;2.90;;;6.20;99.90;;;;;;5146233;27;20196;-80
2020/12/31 04:39:00;;;;;;;3.08;2.88;;;6.20;99.90;;;;;;5137174;27;20192;-80
2020/12/31 04:41:26;;;;;;;2.60;2.40;;;6.20;99.90;;;;;;5144811;27;20249;-80
2020/12/31 04:43:54;;;;;;;3.70;3.20;;;6.20;99.90;;;;;;5150665;27;20211;-80
2020/12/31 04:46:22;;;;;;;3.67;2.97;;;6.20;99.90;;;;;;5132928;27;20248;-80
2020/12/31 04:48:55;;;;;;;4.75;3.33;;;6.20;99.90;;;;;;5138798;27;20230;-80
2020/12/31 04:51:26;;;;;;;3.80;2.05;;;6.30;99.90;;;;;;5137558;27;20195;-80
2020/12/31 04:53:54;;;;;;;3.47;3.00;;;6.20;99.90;;;;;;5147181;27;20192;-80
2020/12/31 04:56:25;;;;;;;4.22;3.08;;;6.20;99.90;;;;;;5153938;27;20199;-80
2020/12/31 04:59:14;;;;;;;3.38;2.88;;;6.20;99.90;;;;;;5140467;27;20211;-80
2020/12/31 05:01:41;;;;;;;3.88;3.13;;;6.20;99.90;;;;;;5132609;27;20192;-81
2020/12/31 05:04:07;;;;;;;3.22;2.92;;;6.20;99.90;;;;;;5136801;27;20212;-78
2020/12/31 05:06:36;;;;;;;3.30;3.03;;;6.20;99.90;;;;;;5136026;27;20259;-79
2020/12/31 05:09:14;;;;;;;3.15;2.63;;;6.20;99.90;;;;;;5155322;27;20635;-78
2020/12/31 05:11:46;;;;;;;3.53;3.22;;;6.20;99.90;;;;;;5134790;27;20531;-78
2020/12/31 05:14:12;;;;;;;2.83;2.63;;;6.20;99.90;;;;;;5140724;27;20192;-78
2020/12/31 05:16:39;;;;;;;3.30;2.92;;;6.20;99.90;;;;;;5136748;27;20188;-78
2020/12/31 05:19:20;;;;;;;3.90;3.60;;;6.20;99.90;;;;;;5149029;27;20307;-79
2020/12/31 05:21:47;;;;;;;2.50;2.30;;;6.20;99.90;;;;;;5133608;27;20689;-79
2020/12/31 05:24:13;;;;;;;2.60;2.40;;;6.20;99.90;;;;;;5145130;27;20204;-79
2020/12/31 05:26:40;;;;;;;3.20;2.90;;;6.20;99.90;;;;;;5145556;27;20204;-81
2020/12/31 05:29:08;;;;;;;2.95;2.72;;;6.20;99.90;;;;;;5149675;27;20198;-80
2020/12/31 05:31:52;;;;;;;2.80;2.53;;;6.30;99.90;;;;;;5140493;27;20386;-79
2020/12/31 05:34:28;;;;;;;3.10;2.90;;;6.20;99.90;;;;;;5144718;27;20191;-80
2020/12/31 05:36:54;;;;;;;2.53;2.20;;;6.20;99.90;;;;;;5145918;27;20225;-81
2020/12/31 05:39:21;;;;;;;3.30;3.00;;;6.20;99.90;;;;;;5142741;27;20197;-80
2020/12/31 05:41:47;;;;;;;3.85;3.40;;;6.20;99.90;;;;;;5143348;27;20199;-80
2020/12/31 05:44:14;;;;;;;4.85;3.00;;;6.20;99.90;;;;;;5135192;27;20208;-79
2020/12/31 05:46:40;;;;;;;2.78;2.58;;;6.20;99.90;;;;;;5139805;27;20196;-80
2020/12/31 05:49:09;;;;;;;2.55;2.30;;;6.30;99.90;;;;;;5148393;27;20209;-81
2020/12/31 05:51:36;;;;;;;2.67;2.47;;;6.20;99.90;;;;;;5141190;27;20195;-81
2020/12/31 05:54:06;;;;;;;3.70;3.33;;;6.20;99.90;;;;;;5138166;27;20200;-80
2020/12/31 05:56:34;;;;;;;2.63;2.05;;;6.20;99.90;;;;;;5146975;27;20206;-80
2020/12/31 05:59:07;;;;;;;2.90;2.70;;;6.20;99.90;;;;;;5146629;27;20195;-81
2020/12/31 06:01:36;;;;;;;3.92;2.70;;;6.20;99.90;;;;;;5142954;27;20180;-80
2020/12/31 06:04:18;;;;;;;2.75;2.55;;;6.20;99.90;;;;;;5147987;27;20246;-81
2020/12/31 06:06:49;;;;;;;3.75;3.22;;;6.20;99.90;;;;;;5142105;27;20206;-83
2020/12/31 06:09:26;;;;;;;2.88;2.60;;;6.20;99.90;;;;;;5134246;27;20256;-82
2020/12/31 06:11:57;;;;;;;3.45;2.78;;;6.20;99.90;;;;;;5140495;27;20196;-82
2020/12/31 06:14:28;;;;;;;2.35;2.15;;;6.20;99.90;;;;;;5141892;27;20635;-82
2020/12/31 06:16:59;;;;;;;3.00;2.70;;;6.20;99.90;;;;;;5141905;27;20219;-82
2020/12/31 06:19:33;;;;;;;3.58;2.53;;;6.20;99.90;;;;;;5147239;27;20531;-80
2020/12/31 06:22:04;;;;;;;2.72;1.80;;;6.30;99.90;;;;;;5149703;27;20762;-80
2020/12/31 06:24:35;;;;;;;3.20;2.75;;;6.30;99.90;;;;;;5146324;27;20211;-77
2020/12/31 06:27:08;;;;;;;2.90;2.58;;;6.20;99.90;;;;;;5146433;27;20188;-77
2020/12/31 06:29:41;;;;;;;2.33;2.13;;;6.20;99.90;;;;;;5141797;27;20192;-78
2020/12/31 06:32:15;;;;;;;2.05;1.85;;;6.20;99.90;;;;;;5144914;27;20206;-77
2020/12/31 06:34:41;;;;;;;2.40;2.20;;;6.30;99.90;;;;;;5142719;27;20192;-78
2020/12/31 06:37:10;;;;;;;3.15;2.40;;;6.20;99.90;;;;;;5145017;27;20223;-79
2020/12/31 06:39:36;;;;;;;2.40;2.20;;;6.30;99.90;;;;;;5145325;27;20647;-81
2020/12/31 06:42:03;;;;;;;3.65;2.13;;;6.20;99.90;;;;;;5145311;27;20191;-79
2020/12/31 06:44:30;;;;;;;2.70;2.50;;;6.20;99.90;;;;;;5146320;27;20230;-79
2020/12/31 06:46:57;;;;;;;2.72;2.33;;;6.20;99.90;;;;;;5141295;27;20531;-78
2020/12/31 06:49:51;;;;;;;2.30;2.10;;;6.20;99.90;;;;;;5141942;27;20191;-79
2020/12/31 06:52:19;;;;;;;2.40;1.80;;;6.20;99.90;;;;;;5135696;27;20212;-78
2020/12/31 06:54:45;;;;;;;3.00;2.55;;;6.20;99.90;;;;;;5134821;27;20210;-81
2020/12/31 06:57:11;;;;;;;1.80;1.70;;;6.20;99.90;;;;;;5132961;27;20260;-78
2020/12/31 06:59:44;;;;;;;2.97;2.45;;;6.20;99.90;;;;;;5139980;27;20206;-78
2020/12/31 07:02:21;;;;;;;2.55;2.25;;;6.20;99.90;;;;;;5142082;27;20192;-78
2020/12/31 07:04:49;;;;;;;2.05;1.85;;;6.20;99.90;;;;;;5135757;27;20712;-77
2020/12/31 07:07:25;;;;;;;2.65;2.22;;;6.20;99.90;;;;;;5143201;27;20267;-76
2020/12/31 07:09:55;;;;;;;2.20;2.03;;;6.20;99.90;;;;;;5147924;27;20191;-76
2020/12/31 07:12:33;;;;;;;2.40;2.15;;;6.30;99.90;;;;;;5144743;27;20204;-77
2020/12/31 07:14:59;;;;;;;2.35;2.15;;;6.20;99.90;;;;;;5141535;27;20203;-77
2020/12/31 07:17:31;;;;;;;2.05;1.80;;;6.30;99.90;;;;;;5141851;27;20195;-77
2020/12/31 07:20:00;;;;;;;2.22;2.03;;;6.20;99.90;;;;;;5148376;27;20195;-77
2020/12/31 07:22:28;;;;;;;2.30;2.10;;;6.20;99.90;;;;;;5131213;27;20543;-80
2020/12/31 07:24:56;;;;;;;2.83;1.95;;;6.20;99.90;;;;;;5134937;27;20292;-78
2020/12/31 07:27:28;;;;;;;2.33;1.80;;;6.20;99.90;;;;;;5143878;27;20195;-76
2020/12/31 07:29:59;;;;;;;2.33;1.85;;;6.20;99.90;;;;;;5153123;27;20191;-80
2020/12/31 07:32:51;;;;;;;2.05;1.70;;;6.30;99.90;;;;;;5136615;27;20279;-80
2020/12/31 07:35:27;;;;;;;2.33;1.80;;;6.30;99.90;;;;;;5136363;27;20287;-79
2020/12/31 07:37:55;;;;;;;2.83;2.13;;;6.20;99.90;;;;;;5136114;27;20729;-80
2020/12/31 07:40:43;;;;;;;2.08;1.88;;;6.30;99.90;;;;;;5137188;27;20200;-79
2020/12/31 07:43:14;;;;;;;2.58;2.10;;;6.20;99.90;;;;;;5138163;27;20207;-77
2020/12/31 07:45:45;;;;;;;2.90;2.25;;;6.20;99.90;;;;;;5148934;27;20207;-78
2020/12/31 07:48:12;;;;;;;2.40;2.20;;;6.20;99.90;;;;;;5141243;27;20200;-77
2020/12/31 07:50:39;;;;;;;2.60;2.40;;;6.40;99.90;;;;;;5147398;27;20206;-77
2020/12/31 07:53:08;;;;;;;2.00;1.65;;;6.30;99.90;;;;;;5147855;27;20200;-79
2020/12/31 07:55:35;;;;;;;2.00;1.75;;;6.30;99.90;;;;;;5145569;27;20195;-76
2020/12/31 07:58:02;;;;;;;1.90;1.70;;;6.30;99.90;;;;;;5145989;27;20220;-79
2020/12/31 08:00:29;;;;;;;2.53;1.98;;;6.30;99.90;;;;;;5141087;27;20192;-82
2020/12/31 08:02:55;;;;;;;2.67;1.90;;;6.30;99.90;;;;;;5140680;27;20659;-78
2020/12/31 08:05:23;;;;;;;2.63;2.05;;;6.30;99.90;;;;;;5145305;27;20215;-79
2020/12/31 08:07:55;;;;;;;1.63;1.50;;;6.30;99.90;;;;;;5143844;27;20643;-80
2020/12/31 08:10:22;;;;;;;2.15;1.67;;;6.40;99.90;;;;;;5141145;27;20206;-79
2020/12/31 08:12:55;;;;;;;2.47;2.17;;;6.30;99.90;;;;;;5149817;27;20279;-78
2020/12/31 08:15:23;;;;;;;2.00;1.52;;;6.30;99.90;;;;;;5133757;27;20199;-78
2020/12/31 08:17:51;;;;;;;2.55;1.90;;;6.40;99.90;;;;;;5149887;27;20248;-79
2020/12/31 08:20:19;;;;;;;2.00;1.83;;;6.30;99.90;;;;;;5136130;27;20215;-78
2020/12/31 08:22:50;;;;;;;1.88;1.73;;;6.30;99.90;;;;;;5135947;27;20192;-77
2020/12/31 08:25:21;;;;;;;1.90;1.70;;;6.40;99.90;;;;;;5135634;27;20204;-77
2020/12/31 08:27:48;;;;;;;2.40;1.58;;;6.20;99.90;;;;;;5136124;27;20244;-82
2020/12/31 08:30:18;;;;;;;1.63;1.52;;;6.20;99.90;;;;;;5147411;27;20203;-77
2020/12/31 08:32:51;;;;;;;1.73;1.60;;;6.20;99.90;;;;;;5135569;27;20207;-79
2020/12/31 08:35:26;;;;;;;1.73;1.48;;;6.20;99.90;;;;;;5134345;27;20188;-80
2020/12/31 08:38:04;;;;;;;1.67;1.58;;;6.20;99.90;;;;;;5136665;27;20272;-76
2020/12/31 08:40:32;;;;;;;1.35;1.20;;;6.20;99.90;;;;;;5144298;27;20203;-76
2020/12/31 08:42:59;;;;;;;1.77;1.65;;;6.20;99.90;;;;;;5154211;27;20191;-79
2020/12/31 08:45:31;;;;;;;2.20;2.00;;;6.30;99.90;;;;;;5137854;27;20238;-83
2020/12/31 08:48:14;;;;;;;2.40;1.75;;;6.20;99.90;;;;;;5143157;27;20282;-82
2020/12/31 08:50:41;;;;;;;1.85;1.73;;;6.30;99.90;;;;;;5155950;27;20207;-82
2020/12/31 08:53:08;;;;;;;2.10;2.00;;;6.30;99.90;;;;;;5151360;27;20188;-82
2020/12/31 08:55:36;;;;;;;2.75;2.10;;;6.20;99.90;;;;;;5155128;27;20223;-82
2020/12/31 08:58:15;;;;;;;1.92;1.83;;;6.30;99.90;;;;;;5137928;27;20665;-82
2020/12/31 09:00:42;;;;;;;1.85;1.40;;;6.30;99.90;;;;;;5143232;27;20205;-83
2020/12/31 09:03:09;;;;;;;1.75;1.65;;;6.30;99.90;;;;;;5139733;27;20200;-82
2020/12/31 09:05:36;;;;;;;1.95;1.75;;;6.30;99.90;;;;;;5151166;27;20212;-82
2020/12/31 09:08:04;;;;;;;2.15;1.77;;;6.30;99.90;;;;;;5135202;27;20294;-80
2020/12/31 09:10:32;;;;;;;1.63;1.45;;;6.30;99.90;;;;;;5135542;27;20207;-80
2020/12/31 09:12:59;;;;;;;1.73;1.38;;;6.30;99.90;;;;;;5135347;27;20192;-80
2020/12/31 09:15:26;;;;;;;1.83;1.73;;;6.30;99.90;;;;;;5135548;27;20202;-81
2020/12/31 09:17:52;;;;;;;1.85;1.75;;;6.30;99.90;;;;;;5138735;27;20200;-80
2020/12/31 09:20:24;;;;;;;1.80;1.50;;;6.30;99.90;;;;;;5153497;27;20194;-79
2020/12/31 09:22:50;;;;;;;1.95;1.67;;;6.20;99.90;;;;;;5145422;27;20191;-80
2020/12/31 09:25:17;;;;;;;1.38;1.27;;;6.30;99.90;;;;;;5149935;27;20212;-80
2020/12/31 09:27:45;;;;;;;2.38;2.00;;;6.30;99.90;;;;;;5154111;27;20287;-80
2020/12/31 09:30:16;;;;;;;1.67;1.35;;;6.40;99.90;;;;;;5147364;27;20196;-80
2020/12/31 09:32:47;;;;;;;1.50;1.40;;;6.30;99.90;;;;;;5135005;27;20212;-81
2020/12/31 09:35:14;;;;;;;1.98;1.70;;;6.30;99.90;;;;;;5144408;27;20194;-81
2020/12/31 09:37:47;;;;;;;1.88;1.30;;;6.30;99.90;;;;;;5145747;27;20283;-80
2020/12/31 09:40:14;;;;;;;1.80;1.67;;;6.30;99.90;;;;;;5155630;27;20195;-81
2020/12/31 09:42:40;;;;;;;1.38;1.27;;;6.30;99.90;;;;;;5155363;27;20195;-80
2020/12/31 09:45:07;;;;;;;1.60;1.50;;;6.30;99.90;;;;;;5154632;27;20377;-81
2020/12/31 09:47:34;;;;;;;2.08;1.55;;;6.40;99.90;;;;;;5134356;27;20226;-81
2020/12/31 09:50:00;;;;;;;1.50;1.40;;;6.30;99.90;;;;;;5138861;27;20196;-80
2020/12/31 09:52:27;;;;;;;2.17;1.98;;;6.30;99.90;;;;;;5144768;27;20202;-80
2020/12/31 09:54:53;;;;;;;1.63;1.52;;;6.30;99.90;;;;;;5141740;27;20192;-81
2020/12/31 09:57:20;;;;;;;1.40;1.30;;;6.30;99.90;;;;;;5145691;27;20192;-80
2020/12/31 09:59:46;;;;;;;3.20;1.90;;;6.40;99.90;;;;;;5147538;27;20199;-80
2020/12/31 10:02:13;;;;;;;1.60;1.42;;;6.40;99.90;;;;;;5151239;27;20568;-81
2020/12/31 10:04:40;;;;;;;2.22;2.00;;;6.40;99.90;;;;;;5143257;27;20273;-80
2020/12/31 10:07:07;;;;;;;1.70;1.60;;;6.50;99.90;;;;;;5157178;27;20188;-81
2020/12/31 10:09:34;;;;;;;1.90;1.80;;;6.40;99.90;;;;;;5142466;27;20530;-81
2020/12/31 10:12:00;;;;;;;1.40;1.20;;;6.50;99.90;;;;;;5154821;27;20199;-80
2020/12/31 10:14:26;;;;;;;1.65;1.55;;;6.50;99.90;;;;;;5153034;27;20214;-80
2020/12/31 10:16:52;;;;;;;1.67;1.50;;;6.40;99.90;;;;;;5144751;27;20196;-76
2020/12/31 10:19:19;;;;;;;2.30;1.75;;;6.40;99.90;;;;;;5138605;27;20203;-76
2020/12/31 10:21:47;;;;;;;2.05;1.50;;;6.40;99.90;;;;;;5142749;27;20649;-75
2020/12/31 10:24:13;;;;;;;1.80;1.70;;;6.40;99.90;;;;;;5148770;27;20744;-76
2020/12/31 10:26:39;;;;;;;1.23;1.13;;;6.40;99.90;;;;;;5133542;27;20204;-76
2020/12/31 10:29:06;;;;;;;1.55;1.45;;;6.40;99.90;;;;;;5152552;27;20195;-76
2020/12/31 10:31:32;;;;;;;1.90;1.70;;;6.50;99.90;;;;;;5150152;27;20196;-75
2020/12/31 10:33:59;;;;;;;1.30;1.20;;;6.50;99.90;;;;;;5134868;27;20195;-76
2020/12/31 10:36:25;;;;;;;1.33;1.10;;;6.50;99.90;;;;;;5146871;27;20608;-75
2020/12/31 10:38:52;;;;;;;1.60;1.50;;;6.50;99.90;;;;;;5138543;27;20198;-75
2020/12/31 10:41:18;;;;;;;1.50;1.40;;;6.40;99.90;;;;;;5133226;27;20211;-75
2020/12/31 10:43:44;;;;;;;1.50;1.20;;;6.50;99.90;;;;;;5134022;27;20538;-74
2020/12/31 10:46:11;;;;;;;1.70;1.60;;;6.50;99.90;;;;;;5141943;27;20501;-75
2020/12/31 10:48:37;;;;;;;1.67;1.30;;;6.50;99.90;;;;;;5144438;27;20200;-78
2020/12/31 10:51:04;;;;;;;1.90;1.80;;;6.50;99.90;;;;;;5141280;27;20210;-81
2020/12/31 10:53:30;;;;;;;1.60;1.30;;;6.50;99.90;;;;;;5136477;27;20196;-78
2020/12/31 10:55:57;;;;;;;1.40;1.20;;;6.70;99.90;;;;;;5144323;27;20252;-77
2020/12/31 10:58:23;;;;;;;2.17;1.98;;;6.50;99.90;;;;;;5150859;27;20693;-76
2020/12/31 11:00:50;;;;;;;1.85;1.63;;;6.50;99.90;;;;;;5151000;27;20245;-76
2020/12/31 11:03:16;;;;;;;1.63;1.40;;;6.50;99.90;;;;;;5144097;27;20192;-77
2020/12/31 11:05:42;;;;;;;1.90;1.70;;;6.50;99.90;;;;;;5154100;27;20211;-80
2020/12/31 11:08:09;;;;;;;2.15;1.70;;;6.50;99.90;;;;;;5149942;27;20283;-80
2020/12/31 11:10:35;;;;;;;2.70;2.20;;;6.50;99.90;;;;;;5140777;27;20195;-76
2020/12/31 11:13:02;;;;;;;2.30;1.55;;;6.50;99.90;;;;;;5153778;27;20191;-76
2020/12/31 11:15:28;;;;;;;1.35;1.25;;;6.60;99.90;;;;;;5138025;27;20223;-75
2020/12/31 11:17:55;;;;;;;1.60;1.50;;;6.50;99.90;;;;;;5135106;27;20202;-75
2020/12/31 11:20:21;;;;;;;1.98;1.70;;;6.60;99.90;;;;;;5144782;27;20232;-77
2020/12/31 11:22:49;;;;;;;1.80;1.60;;;6.60;99.90;;;;;;5147861;27;20278;-79
2020/12/31 11:25:15;;;;;;;2.05;1.50;;;6.60;99.90;;;;;;5153564;27;20207;-77
2020/12/31 11:27:42;;;;;;;2.42;2.22;;;6.50;99.90;;;;;;5139645;27;20299;-77
2020/12/31 11:30:09;;;;;;;2.25;1.83;;;6.60;99.90;;;;;;5143188;27;20200;-76
2020/12/31 11:32:39;;;;;;;1.70;1.60;;;6.60;99.90;;;;;;5133185;28;20268;-76
2020/12/31 11:35:05;;;;;;;1.65;1.55;;;6.60;99.90;;;;;;5132638;28;20200;-76
2020/12/31 11:37:33;;;;;;;1.70;1.27;;;6.60;99.90;;;;;;5148758;27;20291;-79
2020/12/31 11:39:59;;;;;;;1.65;1.55;;;6.60;99.90;;;;;;5132555;27;20192;-78
2020/12/31 11:42:25;;;;;;;1.50;1.27;;;6.90;99.90;;;;;;5141441;27;20188;-76
2020/12/31 11:44:52;;;;;;;1.50;1.38;;;6.70;99.90;;;;;;5152050;27;20562;-76
2020/12/31 11:47:19;;;;;;;1.60;1.50;;;6.80;99.90;;;;;;5132496;27;20196;-77
2020/12/31 11:49:45;;;;;;;1.77;1.55;;;6.60;99.90;;;;;;5132711;28;20563;-76
2020/12/31 11:52:11;;;;;;;1.77;1.65;;;6.70;99.90;;;;;;5147137;27;20248;-77
2020/12/31 11:54:38;;;;;;;1.52;1.42;;;6.60;99.90;;;;;;5144342;27;20663;-76
2020/12/31 11:57:05;;;;;;;1.55;1.45;;;6.60;99.90;;;;;;5140406;27;20218;-77
2020/12/31 11:59:31;;;;;;;2.35;2.03;;;6.70;99.90;;;;;;5143678;27;20744;-75
2020/12/31 12:01:57;;;;;;;1.63;1.48;;;6.70;99.90;;;;;;5146795;27;20220;-79
2020/12/31 12:04:24;;;;;;;3.05;1.40;;;6.70;99.90;;;;;;5132404;28;20212;-78
2020/12/31 12:06:52;;;;;;;2.17;1.98;;;6.70;99.90;;;;;;5138135;27;20206;-77
2020/12/31 12:09:18;;;;;;;1.60;1.50;;;6.60;99.90;;;;;;5144177;27;20210;-75
2020/12/31 12:11:45;;;;;;;1.60;1.40;;;6.70;99.90;;;;;;5157129;27;20191;-76
2020/12/31 12:14:11;;;;;;;1.83;1.73;;;6.70;99.90;;;;;;5148650;27;20199;-77
2020/12/31 12:16:39;;;;;;;2.13;1.90;;;6.70;99.90;;;;;;5145225;27;20188;-75
2020/12/31 12:19:06;;;;;;;1.88;1.52;;;6.70;99.90;;;;;;5140670;27;20497;-80
2020/12/31 12:21:33;;;;;;;1.50;1.40;;;6.60;99.90;;;;;;5136295;27;20199;-77
2020/12/31 12:23:59;;;;;;;1.55;1.45;;;6.80;99.90;;;;;;5146890;27;20196;-78
2020/12/31 12:26:33;;;;;;;1.63;1.45;;;6.60;99.90;;;;;;5149310;27;20656;-78
2020/12/31 12:28:59;;;;;;;2.45;1.75;;;6.60;99.90;;;;;;5136280;27;20176;-77
2020/12/31 12:31:30;;;;;;;2.00;1.50;;;6.60;99.90;;;;;;5150467;27;20187;-78
2020/12/31 12:33:56;;;;;;;1.70;1.48;;;6.60;99.90;;;;;;5143500;27;20638;-79
2020/12/31 12:36:22;;;;;;;2.30;1.90;;;6.60;99.90;;;;;;5154653;27;20205;-77
2020/12/31 12:38:50;;;;;;;1.70;1.60;;;6.60;99.90;;;;;;5137740;27;20231;-76
2020/12/31 12:41:16;;;;;;;2.33;1.67;;;6.60;99.90;;;;;;5137456;27;20201;-78
2020/12/31 12:43:42;;;;;;;1.85;1.65;;;6.60;99.90;;;;;;5143526;27;20249;-74
2020/12/31 12:46:09;;;;;;;1.63;1.50;;;6.70;99.90;;;;;;5136867;27;20220;-74
2020/12/31 12:48:35;;;;;;;1.88;1.77;;;6.60;99.90;;;;;;5153560;27;20224;-76
2020/12/31 12:51:01;;;;;;;1.73;1.63;;;6.70;99.90;;;;;;5156321;27;20187;-73
2020/12/31 12:53:27;;;;;;;1.40;1.30;;;6.60;99.90;;;;;;5151675;27;20260;-75
2020/12/31 12:55:55;;;;;;;1.50;1.40;;;6.60;99.90;;;;;;5137320;27;20180;-78
2020/12/31 12:58:21;;;;;;;1.73;1.63;;;6.70;99.90;;;;;;5138220;27;20199;-78
2020/12/31 13:00:47;;;;;;;1.65;1.55;;;6.60;99.90;;;;;;5136186;27;20279;-77